Wetterdaten: Woche 22.08.16 - 28.08.16 (KW34)
Datum Zeit Temp. I. Temp. A. Feuchte I. Feuchte A. Luftdruck Regen Wind Richtung Sonnenschein UV Solar Taupunkt Windchill Windben
22.08.2016 00:00 24,3 C 11,9 C 51 % 85 % 1023,1 hPa 0,0 l/m 0,0 km/h (0 Bft) N 0,00 h 0,0 UV-I 0 W/m 9,4 C 11,9 C 0,0 km/h (0 Bft)
22.08.2016 01:00 24,2 C 11,2 C 51 % 88 % 1023,3 hPa 0,0 l/m 0,0 km/h (0 Bft) N 0,00 h 0,0 UV-I 0 W/m 9,3 C 11,2 C 0,0 km/h (0 Bft)
22.08.2016 02:00 24,2 C 11,3 C 52 % 89 % 1023,4 hPa 0,0 l/m 0,0 km/h (0 Bft) N 0,00 h 0,0 UV-I 0 W/m 9,5 C 11,3 C 0,0 km/h (0 Bft)
22.08.2016 03:00 24,2 C 11,2 C 52 % 88 % 1023,4 hPa 0,0 l/m 0,0 km/h (0 Bft) N 0,00 h 0,0 UV-I 0 W/m 9,3 C 11,2 C 0,0 km/h (0 Bft)
22.08.2016 04:00 24,2 C 10,8 C 52 % 90 % 1023,8 hPa 0,0 l/m 0,0 km/h (0 Bft) N 0,00 h 0,0 UV-I 0 W/m 9,3 C 10,8 C 0,1 km/h (0 Bft)
22.08.2016 05:00 24,2 C 11,2 C 53 % 91 % 1024,4 hPa 0,0 l/m 0,0 km/h (0 Bft) N 0,00 h 0,0 UV-I 0 W/m 9,9 C 11,2 C 0,0 km/h (0 Bft)
22.08.2016 06:00 24,1 C 11,7 C 53 % 91 % 1024,9 hPa 0,0 l/m 0,0 km/h (0 Bft) N 0,00 h 0,0 UV-I 12 W/m 10,3 C 11,7 C 0,2 km/h (0 Bft)
22.08.2016 07:00 24,1 C 12,2 C 53 % 91 % 1025,5 hPa 0,0 l/m 0,3 km/h (0 Bft) SW 0,00 h 0,0 UV-I 35 W/m 10,8 C 12,2 C 2,1 km/h (1 Bft)
22.08.2016 08:00 24,3 C 12,8 C 53 % 90 % 1026,0 hPa 0,0 l/m 1,8 km/h (1 Bft) W-SW 0,00 h 0,5 UV-I 60 W/m 11,2 C 12,8 C 5,7 km/h (1 Bft)
22.08.2016 09:00 24,5 C 13,9 C 54 % 87 % 1026,3 hPa 0,0 l/m 1,7 km/h (1 Bft) S-SW 0,55 h 1,1 UV-I 164 W/m 11,8 C 13,9 C 4,4 km/h (1 Bft)
22.08.2016 10:00 24,5 C 14,7 C 54 % 84 % 1026,9 hPa 0,0 l/m 5,0 km/h (1 Bft) S 0,77 h 1,5 UV-I 195 W/m 12,0 C 14,5 C 9,8 km/h (2 Bft)
22.08.2016 11:00 24,6 C 15,0 C 54 % 83 % 1027,3 hPa 0,0 l/m 3,3 km/h (1 Bft) W-SW 0,75 h 1,6 UV-I 193 W/m 12,1 C 15,0 C 7,6 km/h (2 Bft)
22.08.2016 12:00 24,5 C 17,3 C 54 % 74 % 1027,0 hPa 0,0 l/m 3,9 km/h (1 Bft) SW 1,00 h 3,9 UV-I 432 W/m 12,5 C 17,1 C 7,9 km/h (2 Bft)
22.08.2016 13:00 24,1 C 18,8 C 51 % 65 % 1026,7 hPa 0,0 l/m 6,5 km/h (2 Bft) W 1,00 h 4,1 UV-I 524 W/m 11,9 C 18,3 C 12,9 km/h (3 Bft)
22.08.2016 14:00 24,0 C 19,2 C 51 % 63 % 1026,4 hPa 0,0 l/m 2,8 km/h (1 Bft) W 1,00 h 3,3 UV-I 405 W/m 12,1 C 19,1 C 7,3 km/h (2 Bft)
22.08.2016 15:00 24,1 C 20,8 C 50 % 55 % 1026,2 hPa 0,0 l/m 6,2 km/h (2 Bft) W 1,00 h 3,8 UV-I 608 W/m 11,5 C 20,4 C 12,5 km/h (3 Bft)
22.08.2016 16:00 24,2 C 21,0 C 49 % 54 % 1026,3 hPa 0,0 l/m 5,1 km/h (1 Bft) W-NW 0,77 h 2,3 UV-I 447 W/m 11,3 C 20,8 C 10,4 km/h (2 Bft)
22.08.2016 17:00 24,2 C 20,4 C 49 % 56 % 1026,5 hPa 0,0 l/m 5,6 km/h (1 Bft) W 0,57 h 1,3 UV-I 251 W/m 11,1 C 20,0 C 11,1 km/h (2 Bft)
22.08.2016 18:00 24,3 C 19,6 C 49 % 59 % 1026,8 hPa 0,0 l/m 3,6 km/h (1 Bft) W 0,38 h 0,7 UV-I 113 W/m 11,4 C 19,5 C 8,4 km/h (2 Bft)
22.08.2016 19:00 24,4 C 18,6 C 49 % 64 % 1027,0 hPa 0,0 l/m 0,4 km/h (0 Bft) W 0,00 h 0,0 UV-I 32 W/m 11,7 C 18,6 C 1,2 km/h (1 Bft)
22.08.2016 20:00 24,6 C 17,0 C 51 % 74 % 1027,3 hPa 0,0 l/m 0,0 km/h (0 Bft) N 0,00 h 0,0 UV-I 6 W/m 12,3 C 17,0 C 0,0 km/h (0 Bft)
22.08.2016 21:00 24,7 C 14,9 C 51 % 83 % 1027,8 hPa 0,0 l/m 0,0 km/h (0 Bft) N 0,00 h 0,0 UV-I 0 W/m 12,0 C 14,9 C 0,0 km/h (0 Bft)
22.08.2016 22:00 24,7 C 13,4 C 51 % 89 % 1028,0 hPa 0,0 l/m 0,0 km/h (0 Bft) N 0,00 h 0,0 UV-I 0 W/m 11,6 C 13,4 C 0,0 km/h (0 Bft)
22.08.2016 23:00 24,4 C 12,5 C 52 % 91 % 1028,3 hPa 0,0 l/m 0,0 km/h (0 Bft) N 0,00 h 0,0 UV-I 0 W/m 11,1 C 12,5 C 0,0 km/h (0 Bft)
23.08.2016 00:00 24,3 C 12,5 C 52 % 91 % 1028,2 hPa 0,0 l/m 0,0 km/h (0 Bft) N 0,00 h 0,0 UV-I 0 W/m 11,1 C 12,5 C 0,0 km/h (0 Bft)
23.08.2016 01:00 24,2 C 12,8 C 52 % 91 % 1028,0 hPa 0,0 l/m 0,0 km/h (0 Bft) N 0,00 h 0,0 UV-I 0 W/m 11,4 C 12,8 C 0,0 km/h (0 Bft)
23.08.2016 02:00 24,2 C 12,9 C 53 % 90 % 1027,8 hPa 0,0 l/m 0,0 km/h (0 Bft) N 0,00 h 0,0 UV-I 0 W/m 11,3 C 12,9 C 0,0 km/h (0 Bft)
23.08.2016 03:00 24,2 C 13,1 C 53 % 91 % 1027,5 hPa 0,0 l/m 0,0 km/h (0 Bft) N 0,00 h 0,0 UV-I 0 W/m 11,6 C 13,1 C 0,0 km/h (0 Bft)
23.08.2016 04:00 24,2 C 12,9 C 53 % 91 % 1027,6 hPa 0,0 l/m 0,0 km/h (0 Bft) N 0,00 h 0,0 UV-I 0 W/m 11,5 C 12,9 C 0,0 km/h (0 Bft)
23.08.2016 05:00 24,2 C 12,5 C 53 % 91 % 1028,0 hPa 0,0 l/m 0,0 km/h (0 Bft) N 0,00 h 0,0 UV-I 0 W/m 11,1 C 12,5 C 0,0 km/h (0 Bft)
23.08.2016 06:00 24,2 C 12,7 C 54 % 93 % 1028,3 hPa 0,0 l/m 0,0 km/h (0 Bft) N 0,00 h 0,0 UV-I 12 W/m 11,6 C 12,7 C 0,0 km/h (0 Bft)
23.08.2016 07:00 24,1 C 13,4 C 54 % 93 % 1028,4 hPa 0,0 l/m 0,0 km/h (0 Bft) N 0,00 h 0,5 UV-I 54 W/m 12,3 C 13,4 C 0,0 km/h (0 Bft)
23.08.2016 08:00 24,3 C 14,8 C 54 % 90 % 1028,5 hPa 0,0 l/m 0,0 km/h (0 Bft) N 0,47 h 0,8 UV-I 143 W/m 13,1 C 14,8 C 0,1 km/h (0 Bft)
23.08.2016 09:00 24,4 C 17,7 C 54 % 81 % 1028,4 hPa 0,0 l/m 0,7 km/h (0 Bft) S 1,00 h 2,1 UV-I 430 W/m 14,4 C 17,7 C 2,0 km/h (1 Bft)
23.08.2016 10:00 24,1 C 20,6 C 55 % 71 % 1028,0 hPa 0,0 l/m 1,7 km/h (1 Bft) S 1,00 h 3,5 UV-I 614 W/m 15,2 C 20,6 C 4,2 km/h (1 Bft)
23.08.2016 11:00 24,2 C 22,2 C 54 % 63 % 1027,7 hPa 0,0 l/m 3,1 km/h (1 Bft) W 1,00 h 4,6 UV-I 716 W/m 15,0 C 22,2 C 6,5 km/h (2 Bft)
23.08.2016 12:00 24,3 C 23,4 C 54 % 61 % 1027,2 hPa 0,0 l/m 2,2 km/h (1 Bft) W 1,00 h 5,0 UV-I 659 W/m 15,5 C 23,4 C 5,9 km/h (2 Bft)
23.08.2016 13:00 24,4 C 24,5 C 54 % 58 % 1026,7 hPa 0,0 l/m 1,1 km/h (0 Bft) SO 1,00 h 5,5 UV-I 805 W/m 15,6 C 24,5 C 3,2 km/h (1 Bft)
23.08.2016 14:00 24,6 C 25,3 C 54 % 54 % 1026,2 hPa 0,0 l/m 1,9 km/h (1 Bft) W-SW 0,95 h 4,9 UV-I 704 W/m 15,2 C 25,3 C 4,4 km/h (1 Bft)
23.08.2016 15:00 24,7 C 25,8 C 54 % 51 % 1025,8 hPa 0,0 l/m 1,6 km/h (1 Bft) W 1,00 h 3,8 UV-I 641 W/m 14,8 C 25,8 C 3,8 km/h (1 Bft)
23.08.2016 16:00 25,0 C 26,1 C 52 % 44 % 1025,4 hPa 0,0 l/m 1,9 km/h (1 Bft) W 1,00 h 2,7 UV-I 521 W/m 12,8 C 26,1 C 4,7 km/h (1 Bft)
23.08.2016 17:00 25,1 C 25,7 C 50 % 43 % 1025,3 hPa 0,0 l/m 1,6 km/h (1 Bft) NW 1,00 h 1,4 UV-I 314 W/m 12,1 C 25,7 C 4,0 km/h (1 Bft)
23.08.2016 18:00 25,0 C 24,9 C 50 % 47 % 1025,3 hPa 0,0 l/m 1,1 km/h (0 Bft) W-NW 0,43 h 0,8 UV-I 102 W/m 12,6 C 24,9 C 2,6 km/h (1 Bft)
23.08.2016 19:00 25,1 C 23,6 C 52 % 53 % 1025,1 hPa 0,0 l/m 0,0 km/h (0 Bft) N 0,00 h 0,0 UV-I 18 W/m 13,4 C 23,6 C 0,0 km/h (0 Bft)
23.08.2016 20:00 25,1 C 21,1 C 52 % 68 % 1025,4 hPa 0,0 l/m 0,0 km/h (0 Bft) N 0,00 h 0,0 UV-I 8 W/m 14,9 C 21,1 C 0,0 km/h (0 Bft)
23.08.2016 21:00 25,2 C 19,3 C 53 % 77 % 1025,7 hPa 0,0 l/m 0,0 km/h (0 Bft) N 0,00 h 0,0 UV-I 0 W/m 15,2 C 19,3 C 0,0 km/h (0 Bft)
23.08.2016 22:00 25,1 C 17,7 C 53 % 83 % 1025,7 hPa 0,0 l/m 0,0 km/h (0 Bft) N 0,00 h 0,0 UV-I 0 W/m 14,8 C 17,7 C 0,0 km/h (0 Bft)
23.08.2016 23:00 24,8 C 17,0 C 54 % 84 % 1025,6 hPa 0,0 l/m 0,0 km/h (0 Bft) N 0,00 h 0,0 UV-I 0 W/m 14,2 C 17,0 C 0,0 km/h (0 Bft)
24.08.2016 00:00 24,7 C 16,2 C 54 % 85 % 1025,7 hPa 0,0 l/m 0,0 km/h (0 Bft) N 0,00 h 0,0 UV-I 0 W/m 13,7 C 16,2 C 0,0 km/h (0 Bft)
24.08.2016 01:00 24,6 C 15,7 C 54 % 87 % 1025,5 hPa 0,0 l/m 0,0 km/h (0 Bft) N 0,00 h 0,0 UV-I 0 W/m 13,5 C 15,7 C 0,0 km/h (0 Bft)
24.08.2016 02:00 24,6 C 14,9 C 55 % 88 % 1025,3 hPa 0,0 l/m 0,0 km/h (0 Bft) N 0,00 h 0,0 UV-I 0 W/m 12,9 C 14,9 C 0,0 km/h (0 Bft)
24.08.2016 03:00 24,6 C 14,3 C 55 % 90 % 1025,2 hPa 0,0 l/m 0,0 km/h (0 Bft) N 0,00 h 0,0 UV-I 0 W/m 12,7 C 14,3 C 0,0 km/h (0 Bft)
24.08.2016 04:00 24,6 C 13,6 C 55 % 90 % 1025,1 hPa 0,0 l/m 0,0 km/h (0 Bft) N 0,00 h 0,0 UV-I 0 W/m 12,0 C 13,6 C 0,0 km/h (0 Bft)
24.08.2016 05:00 24,6 C 12,9 C 55 % 91 % 1025,1 hPa 0,0 l/m 0,0 km/h (0 Bft) N 0,00 h 0,0 UV-I 0 W/m 11,4 C 12,9 C 0,0 km/h (0 Bft)
24.08.2016 06:00 24,5 C 12,3 C 56 % 92 % 1025,3 hPa 0,0 l/m 0,0 km/h (0 Bft) N 0,00 h 0,0 UV-I 11 W/m 11,0 C 12,3 C 0,0 km/h (0 Bft)
24.08.2016 07:00 24,5 C 12,6 C 56 % 94 % 1025,4 hPa 0,0 l/m 0,0 km/h (0 Bft) N 0,33 h 0,5 UV-I 117 W/m 11,6 C 12,6 C 0,0 km/h (0 Bft)
24.08.2016 08:00 24,5 C 17,4 C 56 % 89 % 1025,3 hPa 0,0 l/m 0,0 km/h (0 Bft) N 1,00 h 1,1 UV-I 321 W/m 15,4 C 17,4 C 0,0 km/h (0 Bft)
24.08.2016 09:00 24,7 C 21,9 C 56 % 71 % 1025,0 hPa 0,0 l/m 2,3 km/h (1 Bft) O-SO 1,00 h 2,1 UV-I 479 W/m 16,3 C 21,9 C 5,3 km/h (1 Bft)
24.08.2016 10:00 24,6 C 23,8 C 56 % 62 % 1024,9 hPa 0,0 l/m 2,5 km/h (1 Bft) SO 1,00 h 3,4 UV-I 607 W/m 16,0 C 23,7 C 6,2 km/h (2 Bft)
24.08.2016 11:00 24,5 C 24,7 C 56 % 57 % 1024,7 hPa 0,0 l/m 4,4 km/h (1 Bft) SO 1,00 h 4,7 UV-I 699 W/m 15,5 C 24,6 C 8,7 km/h (2 Bft)
24.08.2016 12:00 24,6 C 25,9 C 56 % 54 % 1024,3 hPa 0,0 l/m 4,3 km/h (1 Bft) O-SO 1,00 h 5,6 UV-I 751 W/m 15,8 C 25,8 C 9,2 km/h (2 Bft)
24.08.2016 13:00 24,7 C 26,4 C 56 % 53 % 1023,9 hPa 0,0 l/m 4,9 km/h (1 Bft) SO 1,00 h 5,7 UV-I 754 W/m 16,0 C 26,3 C 9,9 km/h (2 Bft)
24.08.2016 14:00 24,7 C 26,9 C 56 % 50 % 1023,6 hPa 0,0 l/m 4,3 km/h (1 Bft) SO 1,00 h 5,1 UV-I 713 W/m 15,4 C 26,8 C 8,6 km/h (2 Bft)
24.08.2016 15:00 25,1 C 26,8 C 55 % 48 % 1023,2 hPa 0,0 l/m 5,0 km/h (1 Bft) SO 1,00 h 4,0 UV-I 627 W/m 14,9 C 26,7 C 10,0 km/h (2 Bft)
24.08.2016 16:00 25,4 C 27,0 C 54 % 47 % 1022,9 hPa 0,0 l/m 3,2 km/h (1 Bft) O 1,00 h 2,6 UV-I 501 W/m 14,8 C 26,9 C 7,5 km/h (2 Bft)
24.08.2016 17:00 25,3 C 26,6 C 55 % 47 % 1022,6 hPa 0,0 l/m 3,3 km/h (1 Bft) SO 1,00 h 1,4 UV-I 307 W/m 14,5 C 26,5 C 6,9 km/h (2 Bft)
24.08.2016 18:00 25,2 C 25,9 C 54 % 49 % 1022,2 hPa 0,0 l/m 1,5 km/h (1 Bft) O-SO 0,42 h 0,8 UV-I 101 W/m 14,3 C 25,9 C 4,4 km/h (1 Bft)
24.08.2016 19:00 25,3 C 24,6 C 55 % 53 % 1022,1 hPa 0,0 l/m 0,1 km/h (0 Bft) O-NO 0,00 h 0,0 UV-I 15 W/m 14,5 C 24,6 C 0,7 km/h (0 Bft)
24.08.2016 20:00 25,1 C 21,9 C 55 % 63 % 1022,4 hPa 0,0 l/m 0,0 km/h (0 Bft) N 0,00 h 0,0 UV-I 5 W/m 14,5 C 21,9 C 0,0 km/h (0 Bft)
24.08.2016 21:00 25,0 C 18,8 C 55 % 77 % 1022,4 hPa 0,0 l/m 0,0 km/h (0 Bft) N 0,00 h 0,0 UV-I 0 W/m 14,6 C 18,8 C 0,0 km/h (0 Bft)
24.08.2016 22:00 25,1 C 17,8 C 55 % 77 % 1022,2 hPa 0,0 l/m 0,0 km/h (0 Bft) N 0,00 h 0,0 UV-I 0 W/m 13,8 C 17,8 C 0,0 km/h (0 Bft)
24.08.2016 23:00 25,0 C 16,8 C 55 % 80 % 1022,3 hPa 0,0 l/m 0,0 km/h (0 Bft) N 0,00 h 0,0 UV-I 0 W/m 13,4 C 16,8 C 0,0 km/h (0 Bft)
25.08.2016 00:00 24,9 C 15,6 C 55 % 83 % 1022,4 hPa 0,0 l/m 0,0 km/h (0 Bft) N 0,00 h 0,0 UV-I 0 W/m 12,8 C 15,6 C 0,0 km/h (0 Bft)
25.08.2016 01:00 24,9 C 15,0 C 55 % 86 % 1022,2 hPa 0,0 l/m 0,1 km/h (0 Bft) O 0,00 h 0,0 UV-I 0 W/m 12,7 C 15,0 C 1,0 km/h (0 Bft)
25.08.2016 02:00 24,8 C 15,8 C 56 % 82 % 1022,0 hPa 0,0 l/m 0,1 km/h (0 Bft) O 0,00 h 0,0 UV-I 0 W/m 12,8 C 15,8 C 0,8 km/h (0 Bft)
25.08.2016 03:00 24,4 C 14,7 C 57 % 83 % 1021,9 hPa 0,0 l/m 0,0 km/h (0 Bft) N 0,00 h 0,0 UV-I 0 W/m 11,9 C 14,7 C 0,0 km/h (0 Bft)
25.08.2016 04:00 24,0 C 13,4 C 57 % 86 % 1021,9 hPa 0,0 l/m 0,0 km/h (0 Bft) N 0,00 h 0,0 UV-I 0 W/m 11,1 C 13,4 C 0,0 km/h (0 Bft)
25.08.2016 05:00 24,5 C 12,4 C 57 % 88 % 1021,6 hPa 0,0 l/m 0,0 km/h (0 Bft) N 0,00 h 0,0 UV-I 0 W/m 10,5 C 12,4 C 0,0 km/h (0 Bft)
25.08.2016 06:00 24,7 C 11,8 C 57 % 90 % 1021,5 hPa 0,0 l/m 0,0 km/h (0 Bft) N 0,00 h 0,0 UV-I 9 W/m 10,2 C 11,8 C 0,0 km/h (0 Bft)
25.08.2016 07:00 24,7 C 12,1 C 56 % 93 % 1021,4 hPa 0,0 l/m 0,0 km/h (0 Bft) N 0,35 h 0,5 UV-I 112 W/m 11,1 C 12,1 C 0,0 km/h (0 Bft)
25.08.2016 08:00 24,6 C 17,1 C 56 % 87 % 1021,2 hPa 0,0 l/m 0,9 km/h (0 Bft) O-SO 1,00 h 1,0 UV-I 326 W/m 14,8 C 17,1 C 2,3 km/h (1 Bft)
25.08.2016 09:00 24,8 C 20,9 C 56 % 68 % 1021,4 hPa 0,0 l/m 4,3 km/h (1 Bft) SO 1,00 h 2,1 UV-I 485 W/m 14,8 C 20,7 C 10,9 km/h (2 Bft)
25.08.2016 10:00 24,8 C 22,4 C 56 % 61 % 1021,4 hPa 0,0 l/m 7,6 km/h (2 Bft) SO 1,00 h 3,5 UV-I 617 W/m 14,4 C 21,8 C 15,0 km/h (3 Bft)
25.08.2016 11:00 24,8 C 24,1 C 56 % 52 % 1021,0 hPa 0,0 l/m 8,2 km/h (2 Bft) SO 1,00 h 4,8 UV-I 715 W/m 13,7 C 23,4 C 15,9 km/h (3 Bft)
25.08.2016 12:00 24,8 C 25,4 C 56 % 48 % 1020,5 hPa 0,0 l/m 6,9 km/h (2 Bft) O-SO 1,00 h 5,6 UV-I 760 W/m 13,5 C 25,0 C 14,0 km/h (3 Bft)
25.08.2016 13:00 24,9 C 26,5 C 56 % 45 % 1019,9 hPa 0,0 l/m 6,2 km/h (2 Bft) O-SO 1,00 h 5,8 UV-I 769 W/m 13,6 C 26,2 C 13,4 km/h (3 Bft)
25.08.2016 14:00 24,9 C 27,7 C 55 % 40 % 1019,5 hPa 0,0 l/m 5,3 km/h (1 Bft) O-SO 1,00 h 5,2 UV-I 732 W/m 13,0 C 27,6 C 12,4 km/h (3 Bft)
25.08.2016 15:00 25,2 C 28,4 C 55 % 37 % 1019,2 hPa 0,0 l/m 3,8 km/h (1 Bft) SO 1,00 h 4,0 UV-I 647 W/m 12,3 C 28,3 C 8,6 km/h (2 Bft)
25.08.2016 16:00 25,4 C 28,3 C 54 % 35 % 1018,8 hPa 0,0 l/m 3,8 km/h (1 Bft) O 1,00 h 2,6 UV-I 519 W/m 11,5 C 28,3 C 10,2 km/h (2 Bft)
25.08.2016 17:00 25,5 C 27,9 C 51 % 36 % 1018,4 hPa 0,0 l/m 3,3 km/h (1 Bft) SO 1,00 h 1,4 UV-I 320 W/m 11,3 C 27,9 C 9,2 km/h (2 Bft)
25.08.2016 18:00 25,6 C 27,0 C 51 % 40 % 1018,0 hPa 0,0 l/m 1,5 km/h (1 Bft) O-SO 0,45 h 0,8 UV-I 104 W/m 12,1 C 27,0 C 4,4 km/h (1 Bft)
25.08.2016 19:00 25,6 C 25,5 C 51 % 44 % 1017,9 hPa 0,0 l/m 0,2 km/h (0 Bft) O-SO 0,00 h 0,0 UV-I 14 W/m 12,2 C 25,5 C 0,6 km/h (0 Bft)
25.08.2016 20:00 25,5 C 22,8 C 51 % 54 % 1018,3 hPa 0,0 l/m 0,0 km/h (0 Bft) N 0,00 h 0,0 UV-I 5 W/m 13,0 C 22,8 C 0,0 km/h (0 Bft)
25.08.2016 21:00 25,3 C 20,9 C 51 % 60 % 1018,4 hPa 0,0 l/m 0,0 km/h (0 Bft) O-NO 0,00 h 0,0 UV-I 0 W/m 12,9 C 20,9 C 0,2 km/h (0 Bft)
25.08.2016 22:00 25,2 C 19,4 C 52 % 64 % 1018,3 hPa 0,0 l/m 0,1 km/h (0 Bft) O 0,00 h 0,0 UV-I 0 W/m 12,4 C 19,4 C 0,7 km/h (0 Bft)
25.08.2016 23:00 25,1 C 19,0 C 52 % 64 % 1018,4 hPa 0,0 l/m 2,3 km/h (1 Bft) O 0,00 h 0,0 UV-I 0 W/m 12,2 C 19,0 C 5,1 km/h (1 Bft)
26.08.2016 00:00 25,1 C 19,6 C 53 % 62 % 1018,5 hPa 0,0 l/m 1,6 km/h (1 Bft) O 0,00 h 0,0 UV-I 0 W/m 12,0 C 19,6 C 4,1 km/h (1 Bft)
26.08.2016 01:00 25,1 C 19,0 C 53 % 63 % 1018,5 hPa 0,0 l/m 0,3 km/h (0 Bft) O 0,00 h 0,0 UV-I 0 W/m 11,9 C 19,0 C 1,9 km/h (1 Bft)
26.08.2016 02:00 25,0 C 17,5 C 53 % 70 % 1018,0 hPa 0,0 l/m 0,0 km/h (0 Bft) N 0,00 h 0,0 UV-I 0 W/m 11,9 C 17,5 C 0,3 km/h (0 Bft)
26.08.2016 03:00 24,9 C 16,1 C 54 % 75 % 1018,0 hPa 0,0 l/m 0,1 km/h (0 Bft) NO 0,00 h 0,0 UV-I 0 W/m 11,7 C 16,1 C 0,7 km/h (0 Bft)
26.08.2016 04:00 25,0 C 15,4 C 54 % 78 % 1017,8 hPa 0,0 l/m 0,1 km/h (0 Bft) O 0,00 h 0,0 UV-I 0 W/m 11,6 C 15,4 C 0,4 km/h (0 Bft)
26.08.2016 05:00 25,0 C 14,0 C 54 % 81 % 1017,9 hPa 0,0 l/m 0,0 km/h (0 Bft) N 0,00 h 0,0 UV-I 0 W/m 10,8 C 14,0 C 0,2 km/h (0 Bft)
26.08.2016 06:00 24,9 C 12,7 C 54 % 84 % 1018,1 hPa 0,0 l/m 0,0 km/h (0 Bft) N 0,00 h 0,0 UV-I 9 W/m 10,1 C 12,7 C 0,0 km/h (0 Bft)
26.08.2016 07:00 24,9 C 12,6 C 54 % 90 % 1018,3 hPa 0,0 l/m 0,3 km/h (0 Bft) O-NO 0,37 h 0,5 UV-I 113 W/m 11,0 C 12,6 C 0,9 km/h (0 Bft)
26.08.2016 08:00 24,8 C 17,6 C 54 % 79 % 1018,1 hPa 0,0 l/m 0,8 km/h (0 Bft) O-NO 1,00 h 1,0 UV-I 330 W/m 13,9 C 17,6 C 2,6 km/h (1 Bft)
26.08.2016 09:00 24,8 C 20,9 C 54 % 66 % 1018,2 hPa 0,0 l/m 2,2 km/h (1 Bft) O-SO 1,00 h 2,0 UV-I 483 W/m 14,3 C 20,9 C 6,0 km/h (2 Bft)
26.08.2016 10:00 24,8 C 23,4 C 54 % 57 % 1018,2 hPa 0,0 l/m 2,5 km/h (1 Bft) O-NO 1,00 h 3,3 UV-I 623 W/m 14,5 C 23,4 C 5,9 km/h (2 Bft)
26.08.2016 11:00 24,9 C 25,5 C 53 % 50 % 1018,1 hPa 0,0 l/m 1,1 km/h (1 Bft) SO 1,00 h 4,6 UV-I 720 W/m 14,3 C 25,5 C 3,5 km/h (1 Bft)
26.08.2016 12:00 25,2 C 27,2 C 53 % 45 % 1017,9 hPa 0,0 l/m 1,1 km/h (1 Bft) O-SO 1,00 h 5,4 UV-I 769 W/m 14,2 C 27,2 C 3,7 km/h (1 Bft)
26.08.2016 13:00 25,4 C 28,5 C 53 % 43 % 1017,6 hPa 0,0 l/m 1,4 km/h (1 Bft) SO 1,00 h 5,5 UV-I 770 W/m 14,5 C 28,5 C 3,9 km/h (1 Bft)
26.08.2016 14:00 25,7 C 29,5 C 53 % 40 % 1017,4 hPa 0,0 l/m 2,4 km/h (1 Bft) O-NO 1,00 h 5,0 UV-I 727 W/m 14,3 C 29,5 C 5,7 km/h (1 Bft)
26.08.2016 15:00 25,8 C 29,8 C 52 % 35 % 1017,3 hPa 0,0 l/m 2,0 km/h (1 Bft) O-SO 1,00 h 3,8 UV-I 640 W/m 12,8 C 29,8 C 5,6 km/h (1 Bft)
26.08.2016 16:00 25,8 C 29,6 C 52 % 36 % 1017,0 hPa 0,0 l/m 1,7 km/h (1 Bft) O-SO 1,00 h 2,5 UV-I 512 W/m 12,9 C 29,6 C 5,0 km/h (1 Bft)
26.08.2016 17:00 25,7 C 29,2 C 51 % 36 % 1016,8 hPa 0,0 l/m 3,1 km/h (1 Bft) O-SO 1,00 h 1,4 UV-I 316 W/m 12,4 C 29,2 C 7,4 km/h (2 Bft)
26.08.2016 18:00 25,8 C 28,3 C 50 % 36 % 1016,9 hPa 0,0 l/m 1,0 km/h (0 Bft) O-SO 0,47 h 0,7 UV-I 103 W/m 11,9 C 28,3 C 3,4 km/h (1 Bft)
26.08.2016 19:00 25,9 C 26,6 C 51 % 43 % 1017,0 hPa 0,0 l/m 0,1 km/h (0 Bft) O-NO 0,00 h 0,0 UV-I 14 W/m 12,9 C 26,6 C 0,9 km/h (0 Bft)
26.08.2016 20:00 25,7 C 23,1 C 51 % 56 % 1017,5 hPa 0,0 l/m 0,0 km/h (0 Bft) N 0,00 h 0,0 UV-I 5 W/m 13,7 C 23,1 C 0,1 km/h (0 Bft)
26.08.2016 21:00 25,4 C 21,3 C 52 % 65 % 1017,8 hPa 0,0 l/m 0,1 km/h (0 Bft) O-NO 0,00 h 0,0 UV-I 0 W/m 14,4 C 21,3 C 0,5 km/h (0 Bft)
26.08.2016 22:00 25,3 C 19,1 C 53 % 72 % 1018,3 hPa 0,0 l/m 0,0 km/h (0 Bft) N 0,00 h 0,0 UV-I 0 W/m 13,8 C 19,1 C 0,0 km/h (0 Bft)
26.08.2016 23:00 25,2 C 17,4 C 53 % 76 % 1018,5 hPa 0,0 l/m 0,0 km/h (0 Bft) N 0,00 h 0,0 UV-I 0 W/m 13,2 C 17,4 C 0,0 km/h (0 Bft)
27.08.2016 00:00 25,2 C 16,2 C 53 % 81 % 1018,5 hPa 0,0 l/m 0,0 km/h (0 Bft) N 0,00 h 0,0 UV-I 0 W/m 12,9 C 16,2 C 0,0 km/h (0 Bft)
27.08.2016 01:00 25,2 C 15,0 C 53 % 85 % 1018,7 hPa 0,0 l/m 0,0 km/h (0 Bft) N 0,00 h 0,0 UV-I 0 W/m 12,5 C 15,0 C 0,0 km/h (0 Bft)
27.08.2016 02:00 25,2 C 14,1 C 53 % 87 % 1018,7 hPa 0,0 l/m 0,0 km/h (0 Bft) N 0,00 h 0,0 UV-I 0 W/m 11,9 C 14,1 C 0,0 km/h (0 Bft)
27.08.2016 03:00 25,1 C 13,4 C 54 % 88 % 1018,9 hPa 0,0 l/m 0,0 km/h (0 Bft) N 0,00 h 0,0 UV-I 0 W/m 11,5 C 13,4 C 0,0 km/h (0 Bft)
27.08.2016 04:00 25,1 C 12,7 C 54 % 89 % 1018,9 hPa 0,0 l/m 0,0 km/h (0 Bft) N 0,00 h 0,0 UV-I 0 W/m 11,0 C 12,7 C 0,0 km/h (0 Bft)
27.08.2016 05:00 25,1 C 12,1 C 54 % 90 % 1019,1 hPa 0,0 l/m 0,0 km/h (0 Bft) N 0,00 h 0,0 UV-I 0 W/m 10,5 C 12,1 C 0,0 km/h (0 Bft)
27.08.2016 06:00 25,1 C 11,7 C 54 % 91 % 1019,2 hPa 0,0 l/m 0,0 km/h (0 Bft) N 0,00 h 0,0 UV-I 9 W/m 10,4 C 11,7 C 0,0 km/h (0 Bft)
27.08.2016 07:00 25,0 C 12,0 C 54 % 93 % 1019,3 hPa 0,0 l/m 0,0 km/h (0 Bft) N 0,28 h 0,5 UV-I 95 W/m 11,0 C 12,0 C 0,0 km/h (0 Bft)
27.08.2016 08:00 25,1 C 16,2 C 54 % 89 % 1019,3 hPa 0,0 l/m 0,0 km/h (0 Bft) N 1,00 h 1,0 UV-I 311 W/m 14,3 C 16,2 C 0,1 km/h (0 Bft)
27.08.2016 09:00 25,2 C 21,6 C 54 % 72 % 1019,3 hPa 0,0 l/m 0,0 km/h (0 Bft) N 1,00 h 1,9 UV-I 476 W/m 16,3 C 21,6 C 0,0 km/h (0 Bft)
27.08.2016 10:00 25,2 C 24,8 C 55 % 60 % 1019,2 hPa 0,0 l/m 0,4 km/h (0 Bft) NW 1,00 h 3,2 UV-I 609 W/m 16,6 C 24,8 C 1,5 km/h (1 Bft)
27.08.2016 11:00 25,5 C 27,8 C 55 % 52 % 1018,9 hPa 0,0 l/m 0,7 km/h (0 Bft) SO 1,00 h 4,4 UV-I 704 W/m 17,0 C 27,8 C 2,5 km/h (1 Bft)
27.08.2016 12:00 25,7 C 29,5 C 56 % 46 % 1018,6 hPa 0,0 l/m 1,8 km/h (1 Bft) SO 1,00 h 5,2 UV-I 751 W/m 16,8 C 29,5 C 4,7 km/h (1 Bft)
27.08.2016 13:00 25,9 C 30,4 C 56 % 42 % 1018,2 hPa 0,0 l/m 3,3 km/h (1 Bft) SO 1,00 h 5,4 UV-I 757 W/m 15,9 C 30,4 C 6,0 km/h (2 Bft)
27.08.2016 14:00 25,8 C 31,1 C 56 % 34 % 1017,8 hPa 0,0 l/m 4,0 km/h (1 Bft) SO 1,00 h 4,8 UV-I 710 W/m 13,3 C 31,1 C 8,4 km/h (2 Bft)
27.08.2016 15:00 25,8 C 31,2 C 56 % 35 % 1017,4 hPa 0,0 l/m 4,0 km/h (1 Bft) O-SO 1,00 h 3,7 UV-I 621 W/m 13,7 C 31,1 C 8,6 km/h (2 Bft)
27.08.2016 16:00 26,0 C 30,9 C 56 % 36 % 1017,0 hPa 0,0 l/m 3,5 km/h (1 Bft) O-SO 1,00 h 2,4 UV-I 499 W/m 14,2 C 30,9 C 8,7 km/h (2 Bft)
27.08.2016 17:00 26,3 C 30,2 C 55 % 37 % 1016,6 hPa 0,0 l/m 2,5 km/h (1 Bft) SO 1,00 h 1,3 UV-I 312 W/m 14,0 C 30,2 C 6,4 km/h (2 Bft)
27.08.2016 18:00 26,3 C 29,3 C 54 % 38 % 1016,3 hPa 0,0 l/m 1,3 km/h (1 Bft) O-SO 0,47 h 0,7 UV-I 101 W/m 13,4 C 29,3 C 4,1 km/h (1 Bft)
27.08.2016 19:00 26,3 C 27,3 C 55 % 45 % 1016,2 hPa 0,0 l/m 1,0 km/h (0 Bft) SO 0,00 h 0,0 UV-I 14 W/m 14,4 C 27,3 C 2,3 km/h (1 Bft)
27.08.2016 20:00 26,1 C 24,2 C 54 % 55 % 1016,4 hPa 0,0 l/m 0,0 km/h (0 Bft) N 0,00 h 0,0 UV-I 0 W/m 14,6 C 24,2 C 0,0 km/h (0 Bft)
27.08.2016 21:00 26,0 C 22,5 C 53 % 59 % 1016,7 hPa 0,0 l/m 0,5 km/h (0 Bft) O-NO 0,00 h 0,0 UV-I 0 W/m 14,2 C 22,5 C 1,3 km/h (1 Bft)
27.08.2016 22:00 25,5 C 19,9 C 54 % 71 % 1016,8 hPa 0,0 l/m 0,0 km/h (0 Bft) N 0,00 h 0,0 UV-I 0 W/m 14,4 C 19,9 C 0,0 km/h (0 Bft)
27.08.2016 23:00 25,5 C 17,9 C 55 % 76 % 1016,8 hPa 0,0 l/m 0,3 km/h (0 Bft) O-NO 0,00 h 0,0 UV-I 0 W/m 13,7 C 17,9 C 1,1 km/h (0 Bft)
28.08.2016 00:00 25,5 C 16,6 C 55 % 80 % 1016,7 hPa 0,0 l/m 0,0 km/h (0 Bft) N 0,00 h 0,0 UV-I 0 W/m 13,2 C 16,6 C 0,0 km/h (0 Bft)
28.08.2016 01:00 25,5 C 15,5 C 55 % 83 % 1016,2 hPa 0,0 l/m 0,0 km/h (0 Bft) N 0,00 h 0,0 UV-I 0 W/m 12,7 C 15,5 C 0,0 km/h (0 Bft)
28.08.2016 02:00 25,4 C 14,6 C 55 % 87 % 1015,8 hPa 0,0 l/m 0,0 km/h (0 Bft) N 0,00 h 0,0 UV-I 0 W/m 12,4 C 14,6 C 0,1 km/h (0 Bft)
28.08.2016 03:00 25,4 C 13,9 C 55 % 89 % 1016,0 hPa 0,0 l/m 0,0 km/h (0 Bft) N 0,00 h 0,0 UV-I 0 W/m 12,1 C 13,9 C 0,0 km/h (0 Bft)
28.08.2016 04:00 25,4 C 13,3 C 54 % 90 % 1015,8 hPa 0,0 l/m 0,0 km/h (0 Bft) N 0,00 h 0,0 UV-I 0 W/m 11,6 C 13,3 C 0,0 km/h (0 Bft)
28.08.2016 05:00 25,4 C 12,7 C 54 % 90 % 1015,5 hPa 0,0 l/m 0,0 km/h (0 Bft) N 0,00 h 0,0 UV-I 0 W/m 11,2 C 12,7 C 0,0 km/h (0 Bft)
28.08.2016 06:00 25,3 C 12,3 C 53 % 91 % 1015,6 hPa 0,0 l/m 0,0 km/h (0 Bft) N 0,00 h 0,0 UV-I 10 W/m 10,9 C 12,3 C 0,0 km/h (0 Bft)
28.08.2016 07:00 25,4 C 12,4 C 53 % 92 % 1015,7 hPa 0,0 l/m 0,0 km/h (0 Bft) N 0,10 h 0,5 UV-I 80 W/m 11,2 C 12,4 C 0,0 km/h (0 Bft)
28.08.2016 08:00 25,1 C 16,8 C 53 % 87 % 1015,8 hPa 0,0 l/m 0,0 km/h (0 Bft) N 0,95 h 0,9 UV-I 306 W/m 14,5 C 16,8 C 0,0 km/h (0 Bft)
28.08.2016 09:00 24,7 C 22,0 C 55 % 71 % 1015,8 hPa 0,0 l/m 0,2 km/h (0 Bft) W 1,00 h 1,7 UV-I 422 W/m 16,5 C 22,0 C 0,6 km/h (0 Bft)
28.08.2016 10:00 25,1 C 25,5 C 56 % 63 % 1015,5 hPa 0,0 l/m 3,9 km/h (1 Bft) S 1,00 h 3,0 UV-I 594 W/m 18,0 C 25,5 C 7,1 km/h (2 Bft)
28.08.2016 11:00 25,5 C 27,3 C 57 % 56 % 1015,3 hPa 0,0 l/m 7,6 km/h (2 Bft) S 1,00 h 4,1 UV-I 670 W/m 17,8 C 27,0 C 13,8 km/h (3 Bft)
28.08.2016 12:00 25,8 C 28,3 C 58 % 53 % 1014,8 hPa 0,0 l/m 5,4 km/h (1 Bft) S 1,00 h 4,5 UV-I 700 W/m 17,6 C 28,2 C 10,5 km/h (2 Bft)
28.08.2016 13:00 25,9 C 28,4 C 57 % 52 % 1014,5 hPa 0,0 l/m 4,6 km/h (1 Bft) SW 1,00 h 3,4 UV-I 423 W/m 17,5 C 28,3 C 9,6 km/h (2 Bft)
28.08.2016 14:00 25,8 C 29,4 C 57 % 51 % 1014,2 hPa 0,0 l/m 4,3 km/h (1 Bft) NW 1,00 h 3,6 UV-I 528 W/m 18,2 C 29,3 C 8,7 km/h (2 Bft)
28.08.2016 15:00 25,7 C 29,9 C 57 % 48 % 1013,6 hPa 0,0 l/m 3,1 km/h (1 Bft) W-SW 1,00 h 2,8 UV-I 429 W/m 17,8 C 29,9 C 7,2 km/h (2 Bft)
28.08.2016 16:00 25,8 C 30,2 C 57 % 45 % 1013,1 hPa 0,0 l/m 4,2 km/h (1 Bft) W 1,00 h 1,9 UV-I 360 W/m 16,8 C 30,1 C 8,8 km/h (2 Bft)
28.08.2016 17:00 26,3 C 30,7 C 57 % 37 % 1012,7 hPa 0,0 l/m 4,3 km/h (1 Bft) SW 1,00 h 1,2 UV-I 290 W/m 14,3 C 30,6 C 9,5 km/h (2 Bft)
28.08.2016 18:00 26,4 C 29,8 C 55 % 39 % 1012,4 hPa 0,0 l/m 3,7 km/h (1 Bft) S-SW 0,40 h 0,6 UV-I 99 W/m 14,3 C 29,8 C 9,2 km/h (2 Bft)
28.08.2016 19:00 26,2 C 28,0 C 55 % 45 % 1012,3 hPa 0,0 l/m 0,2 km/h (0 Bft) S 0,00 h 0,0 UV-I 16 W/m 14,8 C 28,0 C 1,0 km/h (0 Bft)
28.08.2016 20:00 26,2 C 25,5 C 55 % 52 % 1012,7 hPa 0,0 l/m 0,0 km/h (0 Bft) N 0,00 h 0,0 UV-I 0 W/m 14,8 C 25,5 C 0,0 km/h (0 Bft)
28.08.2016 21:00 26,3 C 22,9 C 55 % 63 % 1013,3 hPa 0,0 l/m 0,4 km/h (0 Bft) N 0,00 h 0,0 UV-I 0 W/m 15,5 C 22,9 C 1,0 km/h (0 Bft)
28.08.2016 22:00 26,2 C 21,6 C 55 % 68 % 1014,0 hPa 0,0 l/m 0,3 km/h (0 Bft) N-NW 0,00 h 0,0 UV-I 0 W/m 15,5 C 21,6 C 0,7 km/h (0 Bft)
28.08.2016 23:00 25,9 C 20,5 C 55 % 72 % 1014,3 hPa 0,0 l/m 0,0 km/h (0 Bft) N 0,00 h 0,0 UV-I 0 W/m 15,4 C 20,5 C 0,0 km/h (0 Bft)
Min-Datum _ 22.08.16 22.08.16 22.08.16 27.08.16 28.08.16 - 22.08.16 - - - - 22.08.16 22.08.16 22.08.16
_ Min-Zeit 14:00 04:04 17:26 14:15 18:56 - 00:00 - - - - 03:54 04:04 00:00
Minimum _ 23,8 C 10,8 C 48 % 30 % 1012,2 hPa - 0,0 km/h (0 Bft) - - - - 9,0 C 10,8 C 0,0 km/h (0 Bft)
Max-Datum _ 28.08.16 27.08.16 25.08.16 24.08.16 23.08.16 22.08.16 25.08.16 - 28.08.16 22.08.16 22.08.16 28.08.16 27.08.16 25.08.16
_ Max-Zeit 18:00 15:10 04:43 07:53 08:00 00:00 11:30 - 09:57 13:13 13:24 14:55 15:10 11:29
Maximum _ 26,5 C 31,6 C 58 % 96 % 1028,6 hPa 0,0 l/m 17,7 km/h
SO (3 Bft)
- 0,07 h 6,6 UV-I 1013 W/m 19,6 C 31,6 C 27,4 km/h
SO (4 Bft)
Durchschnitt _ 25,0 C 20,0 C 54 % 68 % 1021,1 hPa #0,0 l/m 1,4 km/h (1 Bft) SO #71:13 h 2,8 UV-I 373 W/m 13,2 C 20,0 C 3,3 km/h (1 Bft)